Bay City, TX

1:53 AM CST on February 09, 2016 (GMT -0600)
Oak Creek 2 | | Change Station
CLOSE
Current Station
Personal Weather Station
Location: Van Vleck, TX
Elevation: 62 ft
Nearby Weather Stations

Elev 62 ft 29.04 °N, 95.89 °W | Updated 22 seconds ago

Mostly Cloudy
Mostly Cloudy
40.1 °F
Feels Like 40 °F
N
0.0
Wind Variable Wind from WSW
Gusts 0.0 mph

Today
High -- | Low -- °F
--% Chance of Precip.
Yesterday
High -- | Low -- °F
Precip. -- in
Pressure 30.33 in
Visibility 10.0 miles
Clouds Clear
Windchill 40 °F
Dew Point 28 °F
Humidity 62%
Rainfall 0.00 in
Snow Depth Not available.
7:07 AM 6:08 PM
New Moon, 1% visible
METAR KBYY 090735Z AUTO 00000KT 10SM CLR 05/M01 A3033 RMK AO2 T00501012
Pressure 30.33 in
Visibility 10.0 miles
Clouds Clear
Windchill 40 °F
Dew Point 28 °F
Humidity 62%
Rainfall 0.00 in
Snow Depth Not available.
7:07 AM 6:08 PM
New Moon, 1% visible
METAR KBYY 090735Z AUTO 00000KT 10SM CLR 05/M01 A3033 RMK AO2 T00501012

10-Day Weather Forecast

Almanac

Astronomy

Feb. 09, 2016 Rise Set
Actual Time
Civil Twilight
Nautical Twilight
Astronomical Twilight
Moon
Length of Visible Light
Length of Day
Tomorrow will be .
, % of the Moon is Illuminated

Today's Extremes

State Highs State Lows

Community

WunderPhotos

Upload Photos

1,891,571 photos uploaded!

WunderBlog® & News

Nearby

Air Quality

  Air Quality AQ Index Pollutant
Not available.

Snow Depth

Station Depth Elevation

Earthquake Activity

City Distance Mag. Time & Date
Minimum magnitude displayed is 2.5.

Coastal Water Temperatures

Place Temperature

Stations

Nearby Weather Stations

Station Location Temp. Windchill Dew Point Humidity Wind Precip. Elev Updated Type
                   

Watches & Warnings

There are currently no watches in effect.